createdAt,value
2022-08-08T00:02:03.265Z,17.80
2022-08-08T00:04:25.467Z,17.80
2022-08-08T00:07:13.516Z,17.80
2022-08-08T00:09:54.191Z,17.80
2022-08-08T00:12:31.746Z,17.80
2022-08-08T00:15:24.294Z,17.70
2022-08-08T00:18:20.524Z,17.80
2022-08-08T00:20:59.159Z,17.80
2022-08-08T00:23:52.278Z,17.70
2022-08-08T00:26:36.308Z,17.70
2022-08-08T00:29:17.568Z,17.70
2022-08-08T00:32:35.502Z,17.70
2022-08-08T00:35:20.023Z,17.60
2022-08-08T00:38:17.033Z,17.60
2022-08-08T00:41:17.079Z,17.50
2022-08-08T00:43:55.860Z,17.50
2022-08-08T00:47:04.388Z,17.50
2022-08-08T00:49:59.734Z,17.50
2022-08-08T00:52:51.604Z,17.40
2022-08-08T00:55:52.503Z,17.40
2022-08-08T00:58:54.422Z,17.40
2022-08-08T01:01:45.199Z,17.40
2022-08-08T01:04:56.966Z,17.30
2022-08-08T01:07:55.978Z,17.30
2022-08-08T01:10:50.751Z,17.30
2022-08-08T01:13:44.488Z,17.20
2022-08-08T01:16:46.107Z,17.20
2022-08-08T01:20:06.110Z,17.20
2022-08-08T01:22:55.825Z,17.20
2022-08-08T01:25:46.094Z,17.20
2022-08-08T01:29:05.903Z,17.20
2022-08-08T01:32:13.444Z,17.20
2022-08-08T01:34:36.714Z,17.10
2022-08-08T01:37:57.224Z,17.10
2022-08-08T01:40:54.226Z,17.10
2022-08-08T01:43:38.373Z,17.00
2022-08-08T01:46:36.667Z,17.00
2022-08-08T01:49:40.989Z,17.00
2022-08-08T01:54:04.649Z,17.00
2022-08-08T01:56:27.620Z,16.90
2022-08-08T01:58:38.857Z,16.90
2022-08-08T02:01:59.754Z,16.90
2022-08-08T02:04:34.055Z,16.80
2022-08-08T02:07:26.376Z,16.80
2022-08-08T02:10:29.809Z,16.80
2022-08-08T02:13:52.675Z,16.70
2022-08-08T02:17:00.337Z,16.80
2022-08-08T02:20:07.499Z,16.70
2022-08-08T02:22:54.963Z,16.70
2022-08-08T02:25:47.271Z,16.70
2022-08-08T02:28:48.538Z,16.70
2022-08-08T02:32:00.567Z,16.70
2022-08-08T02:35:08.922Z,16.60
2022-08-08T02:37:58.250Z,16.60
2022-08-08T02:40:50.264Z,16.50
2022-08-08T02:44:37.745Z,16.50
2022-08-08T02:46:58.243Z,16.50
2022-08-08T02:49:50.882Z,16.50
2022-08-08T02:52:38.582Z,16.40
2022-08-08T02:55:23.187Z,16.40
2022-08-08T02:58:26.717Z,16.40
2022-08-08T03:01:16.684Z,16.40
2022-08-08T03:05:05.204Z,16.30
2022-08-08T03:07:41.573Z,16.30
2022-08-08T03:11:03.058Z,16.30
2022-08-08T03:16:00.543Z,16.40
2022-08-08T03:16:59.326Z,16.30
2022-08-08T03:19:38.878Z,16.30
2022-08-08T03:22:37.509Z,16.30
2022-08-08T03:25:14.418Z,16.20
2022-08-08T03:28:00.037Z,16.20
2022-08-08T03:30:32.144Z,16.20
2022-08-08T03:33:55.191Z,16.20
2022-08-08T03:36:15.947Z,16.20
2022-08-08T03:38:53.820Z,16.20
2022-08-08T03:42:11.810Z,16.30
2022-08-08T03:44:39.818Z,16.20
2022-08-08T03:47:19.926Z,16.20
2022-08-08T03:49:58.814Z,16.20
2022-08-08T03:52:34.075Z,16.20
2022-08-08T03:55:55.761Z,16.20
2022-08-08T03:58:36.459Z,16.20
2022-08-08T04:01:02.121Z,16.20
2022-08-08T04:03:57.334Z,16.20
2022-08-08T04:06:29.808Z,16.20
2022-08-08T04:09:10.867Z,16.20
2022-08-08T04:11:48.495Z,16.30
2022-08-08T04:14:34.916Z,16.30
2022-08-08T04:17:22.702Z,16.30
2022-08-08T04:19:56.665Z,16.30
2022-08-08T04:22:29.733Z,16.30
2022-08-08T04:24:58.217Z,16.30
2022-08-08T04:28:02.192Z,16.30
2022-08-08T04:30:17.168Z,16.30
2022-08-08T04:32:50.516Z,16.30
2022-08-08T04:35:22.835Z,16.30
2022-08-08T04:37:52.556Z,16.30
2022-08-08T04:40:25.803Z,16.30
2022-08-08T04:42:58.070Z,16.30
2022-08-08T04:45:51.137Z,16.30
2022-08-08T04:48:22.079Z,16.20
2022-08-08T04:50:50.701Z,16.30
2022-08-08T04:54:36.011Z,16.20
2022-08-08T04:56:20.638Z,16.20
2022-08-08T04:58:50.898Z,16.30
2022-08-08T05:01:19.538Z,16.20
2022-08-08T05:04:11.278Z,16.30
2022-08-08T05:06:41.126Z,16.30
2022-08-08T05:09:10.131Z,16.30
2022-08-08T05:11:40.934Z,16.30
2022-08-08T05:14:12.761Z,16.20
2022-08-08T05:16:52.342Z,16.30
2022-08-08T05:20:10.329Z,16.20
2022-08-08T05:22:27.415Z,16.20
2022-08-08T05:24:55.884Z,16.30
2022-08-08T05:27:24.725Z,16.30
2022-08-08T05:29:53.328Z,16.40
2022-08-08T05:32:27.609Z,16.40
2022-08-08T05:35:05.151Z,16.40
2022-08-08T05:37:51.870Z,16.50
2022-08-08T05:40:27.937Z,16.50
2022-08-08T05:43:15.495Z,16.70
2022-08-08T05:46:03.915Z,16.80
2022-08-08T05:48:36.127Z,16.90
2022-08-08T05:51:13.394Z,17.00
2022-08-08T05:54:24.622Z,17.00
2022-08-08T05:56:42.493Z,17.10
2022-08-08T05:59:59.509Z,17.20
2022-08-08T06:02:40.958Z,17.30
2022-08-08T06:05:32.942Z,17.40
2022-08-08T06:08:09.172Z,17.50
2022-08-08T06:10:40.884Z,17.60
2022-08-08T06:13:09.921Z,17.80
2022-08-08T06:15:51.410Z,17.90
2022-08-08T06:18:28.184Z,18.00
2022-08-08T06:20:58.641Z,18.10
2022-08-08T06:23:52.410Z,18.10
2022-08-08T06:26:39.111Z,18.30
2022-08-08T06:29:26.512Z,18.40
2022-08-08T06:32:10.480Z,18.50
2022-08-08T06:35:11.874Z,18.50
2022-08-08T06:37:58.962Z,18.60
2022-08-08T06:40:32.172Z,18.70
2022-08-08T06:43:05.739Z,18.80
2022-08-08T06:45:40.384Z,18.90
2022-08-08T06:48:10.057Z,19.00
2022-08-08T06:50:39.571Z,19.10
2022-08-08T06:53:14.015Z,19.30
2022-08-08T06:56:02.187Z,19.30
2022-08-08T06:58:33.853Z,19.40
2022-08-08T07:01:11.744Z,19.50
2022-08-08T07:04:39.671Z,19.50
2022-08-08T07:06:56.102Z,19.60
2022-08-08T07:09:41.749Z,19.70
2022-08-08T07:12:38.408Z,19.80
2022-08-08T07:15:15.551Z,19.80
2022-08-08T07:18:36.663Z,19.80
2022-08-08T07:20:56.330Z,19.90
2022-08-08T07:24:03.841Z,20.00
2022-08-08T07:26:50.896Z,20.20
2022-08-08T07:30:00.040Z,20.20
2022-08-08T07:32:11.077Z,20.30
2022-08-08T07:34:59.350Z,20.40
2022-08-08T07:37:49.599Z,20.40
2022-08-08T07:40:36.176Z,20.40
2022-08-08T07:43:11.382Z,20.50
2022-08-08T07:46:05.240Z,20.60
2022-08-08T07:48:34.315Z,20.80
2022-08-08T07:51:04.393Z,20.90
2022-08-08T07:54:03.708Z,21.00
2022-08-08T07:56:50.022Z,21.00
2022-08-08T07:59:21.120Z,21.10
2022-08-08T08:02:35.824Z,21.10
2022-08-08T08:04:49.145Z,21.20
2022-08-08T08:07:25.888Z,21.20
2022-08-08T08:10:04.509Z,21.30
2022-08-08T08:12:41.397Z,21.40
2022-08-08T08:15:16.159Z,21.50
2022-08-08T08:17:48.382Z,21.50
2022-08-08T08:20:30.293Z,21.70
2022-08-08T08:23:00.851Z,21.70
2022-08-08T08:25:42.854Z,21.80
2022-08-08T08:28:16.925Z,21.90
2022-08-08T08:30:49.947Z,22.00
2022-08-08T08:33:17.891Z,22.00
2022-08-08T08:36:19.691Z,22.00
2022-08-08T08:38:38.085Z,22.00
2022-08-08T08:41:22.281Z,22.20
2022-08-08T08:43:52.016Z,22.30
2022-08-08T08:46:25.723Z,22.40
2022-08-08T08:48:55.614Z,22.50
2022-08-08T08:51:26.536Z,22.50
2022-08-08T08:54:02.650Z,22.60
2022-08-08T08:56:37.815Z,22.70
2022-08-08T08:59:15.333Z,22.90
2022-08-08T09:01:54.561Z,23.00
2022-08-08T09:04:30.970Z,23.00
2022-08-08T09:07:16.389Z,23.10
2022-08-08T09:09:57.679Z,23.40
2022-08-08T09:12:38.275Z,23.60
2022-08-08T09:15:06.470Z,23.70
2022-08-08T09:17:41.489Z,23.80
2022-08-08T09:21:57.974Z,24.00
2022-08-08T09:23:10.544Z,24.20
2022-08-08T09:26:03.298Z,24.10
2022-08-08T09:28:39.674Z,24.00
2022-08-08T09:31:43.407Z,23.80
2022-08-08T09:34:32.167Z,23.60
2022-08-08T09:37:29.144Z,23.50
2022-08-08T09:40:03.699Z,23.50
2022-08-08T09:42:44.214Z,23.70
2022-08-08T09:45:54.684Z,23.80
2022-08-08T09:48:21.542Z,23.80
2022-08-08T09:50:54.986Z,24.00
2022-08-08T09:53:59.910Z,24.20
2022-08-08T09:56:34.662Z,24.30
2022-08-08T09:59:42.762Z,24.20
2022-08-08T10:02:12.604Z,24.20
2022-08-08T10:04:47.527Z,24.10
2022-08-08T10:07:17.248Z,24.00
2022-08-08T10:10:00.860Z,24.00
2022-08-08T10:12:38.755Z,24.00
2022-08-08T10:15:24.331Z,24.00
2022-08-08T10:18:07.458Z,24.00
2022-08-08T10:20:58.008Z,24.10
2022-08-08T10:23:48.274Z,24.20
2022-08-08T10:26:51.817Z,24.40
2022-08-08T10:29:56.658Z,24.50
2022-08-08T10:32:50.875Z,24.50
2022-08-08T10:36:07.680Z,24.60
2022-08-08T10:38:14.385Z,24.60
2022-08-08T10:40:45.700Z,24.50
2022-08-08T10:43:16.108Z,24.50
2022-08-08T10:45:56.710Z,24.50
2022-08-08T10:48:56.537Z,24.50
2022-08-08T10:51:31.064Z,24.40
2022-08-08T10:54:07.774Z,24.30
2022-08-08T10:56:36.195Z,24.40
2022-08-08T10:59:14.191Z,24.50
2022-08-08T11:01:49.436Z,24.60
2022-08-08T11:04:38.576Z,24.70
2022-08-08T11:07:06.894Z,24.80
2022-08-08T11:09:34.384Z,24.90
2022-08-08T11:12:13.118Z,24.90
2022-08-08T11:14:57.094Z,25.00
2022-08-08T11:18:00.962Z,25.00
2022-08-08T11:20:21.459Z,25.20
2022-08-08T11:23:05.225Z,25.20
2022-08-08T11:25:52.717Z,25.30
2022-08-08T11:28:29.480Z,25.20
2022-08-08T11:31:04.120Z,25.10
2022-08-08T11:33:52.613Z,25.10
2022-08-08T11:36:29.056Z,25.00
2022-08-08T11:38:57.276Z,24.90
2022-08-08T11:41:27.620Z,25.80
2022-08-08T11:43:59.784Z,26.80
2022-08-08T11:46:32.658Z,27.10
2022-08-08T11:49:18.734Z,26.90
2022-08-08T11:51:49.877Z,26.60
2022-08-08T11:54:38.012Z,26.20
2022-08-08T11:57:27.206Z,26.00
2022-08-08T12:00:02.743Z,25.70
2022-08-08T12:05:41.955Z,25.60
2022-08-08T12:08:10.379Z,25.80
2022-08-08T12:10:50.954Z,25.80
2022-08-08T12:13:38.394Z,25.80
2022-08-08T12:16:16.419Z,26.00
2022-08-08T12:18:54.383Z,26.70
2022-08-08T12:21:58.747Z,27.60
2022-08-08T12:24:28.341Z,28.40
2022-08-08T12:26:58.350Z,28.60
2022-08-08T12:29:40.990Z,28.00
2022-08-08T12:32:20.067Z,27.50
2022-08-08T12:35:04.379Z,27.50
2022-08-08T12:37:47.948Z,27.10
2022-08-08T12:40:37.535Z,26.90
2022-08-08T12:43:47.921Z,26.80
2022-08-08T12:46:25.248Z,26.80
2022-08-08T12:49:20.710Z,26.80
2022-08-08T12:51:50.229Z,26.70
2022-08-08T12:54:29.738Z,27.30
2022-08-08T12:57:00.805Z,28.50
2022-08-08T12:59:45.277Z,29.70
2022-08-08T13:02:33.746Z,29.70
2022-08-08T13:05:25.645Z,28.80
2022-08-08T13:08:03.342Z,28.20
2022-08-08T13:10:33.655Z,27.60
2022-08-08T13:13:06.133Z,27.40
2022-08-08T13:15:36.891Z,28.30
2022-08-08T13:18:11.513Z,29.60
2022-08-08T13:20:45.977Z,30.50
2022-08-08T13:23:36.545Z,30.10
2022-08-08T13:26:13.288Z,29.30
2022-08-08T13:28:42.767Z,28.60
2022-08-08T13:31:16.323Z,28.10
2022-08-08T13:33:49.906Z,27.60
2022-08-08T13:36:26.123Z,27.40
2022-08-08T13:38:54.745Z,28.10
2022-08-08T13:41:28.410Z,28.90
2022-08-08T13:44:07.625Z,29.90
2022-08-08T13:46:38.559Z,30.90
2022-08-08T13:50:35.746Z,31.50
2022-08-08T13:52:06.488Z,32.10
2022-08-08T13:54:38.485Z,32.50
2022-08-08T13:57:17.805Z,33.00
2022-08-08T14:00:21.128Z,33.50
2022-08-08T14:03:07.635Z,34.00
2022-08-08T14:05:57.714Z,34.50
2022-08-08T14:08:29.921Z,34.40
2022-08-08T14:10:57.243Z,32.90
2022-08-08T14:13:33.604Z,31.40
2022-08-08T14:16:16.056Z,30.20
2022-08-08T14:19:10.745Z,29.20
2022-08-08T14:21:48.810Z,28.50
2022-08-08T14:24:34.030Z,29.10
2022-08-08T14:27:01.738Z,30.30
2022-08-08T14:29:39.108Z,31.60
2022-08-08T14:32:11.829Z,32.80
2022-08-08T14:34:45.241Z,33.10
2022-08-08T14:37:17.657Z,32.00
2022-08-08T14:40:05.599Z,31.00
2022-08-08T14:42:54.462Z,30.00
2022-08-08T14:45:46.918Z,29.30
2022-08-08T14:48:17.883Z,28.70
2022-08-08T14:51:04.977Z,28.40
2022-08-08T14:53:55.514Z,28.00
2022-08-08T14:56:25.093Z,27.60
2022-08-08T14:58:54.240Z,27.40
2022-08-08T15:01:40.740Z,27.40
2022-08-08T15:04:09.647Z,27.40
2022-08-08T15:06:37.598Z,27.90
2022-08-08T15:09:07.113Z,28.10
2022-08-08T15:11:42.876Z,28.00
2022-08-08T15:14:15.600Z,28.40
2022-08-08T15:16:44.480Z,29.80
2022-08-08T15:19:11.903Z,31.30
2022-08-08T15:21:42.742Z,31.40
2022-08-08T15:24:13.699Z,31.60
2022-08-08T15:26:41.704Z,32.10
2022-08-08T15:29:08.781Z,32.30
2022-08-08T15:32:18.101Z,32.90
2022-08-08T15:34:31.432Z,33.40
2022-08-08T15:37:01.897Z,33.90
2022-08-08T15:39:38.453Z,34.40
2022-08-08T15:42:18.019Z,34.90
2022-08-08T15:44:57.545Z,35.20
2022-08-08T15:47:24.527Z,35.40
2022-08-08T15:49:53.132Z,35.20
2022-08-08T15:52:22.735Z,35.20
2022-08-08T15:54:52.949Z,34.90
2022-08-08T15:57:20.954Z,34.30
2022-08-08T16:00:05.882Z,34.30
2022-08-08T16:02:44.253Z,33.50
2022-08-08T16:05:20.560Z,32.70
2022-08-08T16:07:53.858Z,32.00
2022-08-08T16:13:21.032Z,31.80
2022-08-08T16:13:32.133Z,32.10
2022-08-08T16:16:08.957Z,32.40
2022-08-08T16:18:36.892Z,33.20
2022-08-08T16:21:06.013Z,33.70
2022-08-08T16:23:55.652Z,34.10
2022-08-08T16:26:34.407Z,34.30
2022-08-08T16:29:08.220Z,34.40
2022-08-08T16:31:40.344Z,34.60
2022-08-08T16:34:08.914Z,34.10
2022-08-08T16:36:38.381Z,33.80
2022-08-08T16:39:16.666Z,34.00
2022-08-08T16:42:00.863Z,33.90
2022-08-08T16:44:33.482Z,33.20
2022-08-08T16:47:31.618Z,32.70
2022-08-08T16:50:14.210Z,31.80
2022-08-08T16:55:05.576Z,31.80
2022-08-08T16:55:55.436Z,31.90
2022-08-08T16:58:26.400Z,32.40
2022-08-08T17:00:54.608Z,32.40
2022-08-08T17:03:25.261Z,32.50
2022-08-08T17:06:37.099Z,32.60
2022-08-08T17:08:57.049Z,33.10
2022-08-08T17:11:28.299Z,33.50
2022-08-08T17:14:18.112Z,33.80
2022-08-08T17:16:57.175Z,34.00
2022-08-08T17:19:27.041Z,34.10
2022-08-08T17:21:54.472Z,34.10
2022-08-08T17:24:27.678Z,33.80
2022-08-08T17:26:57.942Z,33.70
2022-08-08T17:29:27.216Z,33.50
2022-08-08T17:31:54.830Z,33.30
2022-08-08T17:34:37.279Z,32.90
2022-08-08T17:37:13.540Z,32.60
2022-08-08T17:40:04.657Z,32.60
2022-08-08T17:42:28.359Z,32.80
2022-08-08T17:44:57.567Z,32.90
2022-08-08T17:47:28.068Z,32.80
2022-08-08T17:50:06.358Z,32.60
2022-08-08T17:52:35.339Z,32.30
2022-08-08T17:56:03.788Z,32.10
2022-08-08T17:57:52.780Z,32.10
2022-08-08T18:00:25.851Z,31.70
2022-08-08T18:03:07.816Z,31.00
2022-08-08T18:05:48.638Z,29.90
2022-08-08T18:08:24.927Z,28.70
2022-08-08T18:11:11.663Z,27.70
2022-08-08T18:13:42.502Z,26.90
2022-08-08T18:16:11.058Z,26.50
2022-08-08T18:18:42.900Z,26.10
2022-08-08T18:21:24.834Z,25.70
2022-08-08T18:24:02.624Z,25.40
2022-08-08T18:26:29.765Z,25.00
2022-08-08T18:28:57.620Z,24.70
2022-08-08T18:31:27.767Z,24.50
2022-08-08T18:34:11.509Z,24.30
2022-08-08T18:36:44.426Z,24.10
2022-08-08T18:39:16.449Z,24.00
2022-08-08T18:41:58.319Z,23.90
2022-08-08T18:44:29.876Z,23.70
2022-08-08T18:47:00.647Z,23.60
2022-08-08T18:49:32.623Z,23.50
2022-08-08T18:52:18.548Z,23.40
2022-08-08T18:55:01.077Z,23.30
2022-08-08T18:57:41.650Z,23.20
2022-08-08T19:00:20.077Z,23.10
2022-08-08T19:02:55.176Z,23.00
2022-08-08T19:05:32.025Z,22.90
2022-08-08T19:08:25.861Z,22.80
2022-08-08T19:10:58.863Z,22.70
2022-08-08T19:13:52.948Z,22.70
2022-08-08T19:16:19.339Z,22.60
2022-08-08T19:18:53.147Z,22.50
2022-08-08T19:21:30.800Z,22.50
2022-08-08T19:24:00.204Z,22.40
2022-08-08T19:26:30.254Z,22.30
2022-08-08T19:28:59.439Z,22.20
2022-08-08T19:31:31.517Z,22.10
2022-08-08T19:34:36.806Z,22.10
2022-08-08T19:36:52.175Z,22.00
2022-08-08T19:39:19.695Z,22.00
2022-08-08T19:41:50.428Z,21.90
2022-08-08T19:44:26.690Z,21.90
2022-08-08T19:47:06.840Z,21.80
2022-08-08T19:49:36.489Z,21.80
2022-08-08T19:52:06.231Z,21.70
2022-08-08T19:54:34.090Z,21.70
2022-08-08T19:57:04.174Z,21.60
2022-08-08T19:59:40.388Z,21.60
2022-08-08T20:02:10.645Z,21.60
2022-08-08T20:04:38.601Z,21.50
2022-08-08T20:08:30.079Z,21.50
2022-08-08T20:09:58.798Z,21.40
2022-08-08T20:12:32.824Z,21.40
2022-08-08T20:15:14.575Z,21.30
2022-08-08T20:17:46.519Z,21.30
2022-08-08T20:20:16.042Z,21.30
2022-08-08T20:22:48.983Z,21.30
2022-08-08T20:25:20.870Z,21.20
2022-08-08T20:27:50.536Z,21.20
2022-08-08T20:30:52.929Z,21.20
2022-08-08T20:33:19.951Z,21.10
2022-08-08T20:35:58.169Z,21.10
2022-08-08T20:38:32.559Z,21.10
2022-08-08T20:41:05.410Z,21.00
2022-08-08T20:43:43.467Z,21.00
2022-08-08T20:46:15.292Z,20.90
2022-08-08T20:48:42.152Z,20.80
2022-08-08T20:51:09.147Z,20.80
2022-08-08T20:53:57.784Z,20.70
2022-08-08T20:56:34.718Z,20.70
2022-08-08T20:59:08.808Z,20.60
2022-08-08T21:02:05.337Z,20.60
2022-08-08T21:04:27.707Z,20.50
2022-08-08T21:06:55.120Z,20.50
2022-08-08T21:09:22.164Z,20.40
2022-08-08T21:11:51.215Z,20.40
2022-08-08T21:14:33.504Z,20.40
2022-08-08T21:17:06.285Z,20.40
2022-08-08T21:19:45.465Z,20.30
2022-08-08T21:22:14.589Z,20.20
2022-08-08T21:24:52.951Z,20.10
2022-08-08T21:28:05.453Z,20.10
2022-08-08T21:30:19.157Z,20.10
2022-08-08T21:32:52.522Z,20.00
2022-08-08T21:36:16.453Z,20.00
2022-08-08T21:38:16.055Z,20.00
2022-08-08T21:40:55.751Z,20.00
2022-08-08T21:43:33.037Z,20.00
2022-08-08T21:48:05.917Z,19.90
2022-08-08T21:48:57.301Z,19.90
2022-08-08T21:54:17.654Z,19.80
2022-08-08T21:54:53.842Z,19.80
2022-08-08T21:57:09.481Z,19.70
2022-08-08T22:00:01.373Z,19.70
2022-08-08T22:02:24.767Z,19.60
2022-08-08T22:04:58.720Z,19.60
2022-08-08T22:07:39.956Z,19.60
2022-08-08T22:10:18.611Z,19.60
2022-08-08T22:13:18.755Z,19.60
2022-08-08T22:15:59.486Z,19.50
2022-08-08T22:18:32.907Z,19.50
2022-08-08T22:21:13.944Z,19.50
2022-08-08T22:23:50.780Z,19.40
2022-08-08T22:26:30.666Z,19.40
2022-08-08T22:29:13.425Z,19.40
2022-08-08T22:32:02.290Z,19.30
2022-08-08T22:34:39.440Z,19.30
2022-08-08T22:37:27.767Z,19.20
2022-08-08T22:40:00.443Z,19.30
2022-08-08T22:42:31.899Z,19.30
2022-08-08T22:45:01.970Z,19.20
2022-08-08T22:47:34.606Z,19.20
2022-08-08T22:50:21.620Z,19.20
2022-08-08T22:53:22.342Z,19.20
2022-08-08T22:55:57.994Z,19.20
2022-08-08T22:58:28.435Z,19.20
2022-08-08T23:01:00.066Z,19.10
2022-08-08T23:03:34.210Z,19.10
2022-08-08T23:06:16.408Z,19.10
2022-08-08T23:08:44.487Z,19.10
2022-08-08T23:11:22.024Z,19.10
2022-08-08T23:13:53.612Z,19.00
2022-08-08T23:16:39.539Z,19.00
2022-08-08T23:19:09.661Z,19.00
2022-08-08T23:21:38.085Z,18.90
2022-08-08T23:24:06.583Z,18.90
2022-08-08T23:26:34.208Z,18.90
2022-08-08T23:29:02.033Z,18.90
2022-08-08T23:31:28.993Z,18.90
2022-08-08T23:34:17.755Z,18.90
2022-08-08T23:36:45.073Z,18.90
2022-08-08T23:39:16.263Z,18.80
2022-08-08T23:41:46.977Z,18.80
2022-08-08T23:44:20.213Z,18.80
2022-08-08T23:49:07.124Z,18.70
2022-08-08T23:49:38.642Z,18.70
2022-08-08T23:52:08.764Z,18.70
2022-08-08T23:54:43.601Z,18.70
2022-08-08T23:57:39.432Z,18.60
